sensor_id;sensor_type;location;lat;lon;timestamp;pressure;altitude;pressure_sealevel;temperature;humidity
19576;BME280;41589;51.196;7.074;2023-06-26T00:01:32;98743.34;;;26.37;35.21
19576;BME280;41589;51.196;7.074;2023-06-26T00:06:32;98738.72;;;26.34;35.31
19576;BME280;41589;51.196;7.074;2023-06-26T00:11:33;98731.06;;;26.29;35.27
19576;BME280;41589;51.196;7.074;2023-06-26T00:16:33;98734.31;;;26.25;35.21
19576;BME280;41589;51.196;7.074;2023-06-26T00:21:33;98737.00;;;26.23;35.58
19576;BME280;41589;51.196;7.074;2023-06-26T00:26:34;98732.81;;;26.16;35.60
19576;BME280;41589;51.196;7.074;2023-06-26T00:31:34;98723.97;;;26.14;35.49
19576;BME280;41589;51.196;7.074;2023-06-26T00:36:40;98723.03;;;26.04;35.21
19576;BME280;41589;51.196;7.074;2023-06-26T00:41:43;98720.34;;;25.99;35.62
19576;BME280;41589;51.196;7.074;2023-06-26T00:46:45;98720.56;;;25.93;35.84
19576;BME280;41589;51.196;7.074;2023-06-26T00:51:46;98730.00;;;25.86;35.60
19576;BME280;41589;51.196;7.074;2023-06-26T00:56:46;98726.94;;;25.76;36.23
19576;BME280;41589;51.196;7.074;2023-06-26T01:01:47;98714.81;;;25.70;36.13
19576;BME280;41589;51.196;7.074;2023-06-26T01:06:48;98707.16;;;25.65;36.41
19576;BME280;41589;51.196;7.074;2023-06-26T01:11:50;98706.94;;;25.55;36.55
19576;BME280;41589;51.196;7.074;2023-06-26T01:16:51;98700.81;;;25.44;36.74
19576;BME280;41589;51.196;7.074;2023-06-26T01:22:03;98700.63;;;25.42;36.57
19576;BME280;41589;51.196;7.074;2023-06-26T01:27:15;98695.63;;;25.35;36.83
19576;BME280;41589;51.196;7.074;2023-06-26T01:32:15;98688.13;;;25.24;37.11
19576;BME280;41589;51.196;7.074;2023-06-26T01:37:16;98682.94;;;25.22;36.94
19576;BME280;41589;51.196;7.074;2023-06-26T01:42:17;98685.06;;;25.14;37.49
19576;BME280;41589;51.196;7.074;2023-06-26T01:47:21;98681.59;;;25.08;37.24
19576;BME280;41589;51.196;7.074;2023-06-26T01:52:38;98680.22;;;25.09;37.24
19576;BME280;41589;51.196;7.074;2023-06-26T01:57:41;98674.88;;;25.06;37.25
19576;BME280;41589;51.196;7.074;2023-06-26T02:02:42;98681.03;;;25.02;37.36
19576;BME280;41589;51.196;7.074;2023-06-26T02:07:43;98683.66;;;24.92;37.58
19576;BME280;41589;51.196;7.074;2023-06-26T02:12:44;98679.41;;;24.86;37.71
19576;BME280;41589;51.196;7.074;2023-06-26T02:17:47;98674.81;;;24.83;37.88
19576;BME280;41589;51.196;7.074;2023-06-26T02:22:48;98682.69;;;24.82;37.66
19576;BME280;41589;51.196;7.074;2023-06-26T02:27:51;98686.91;;;24.81;38.04
19576;BME280;41589;51.196;7.074;2023-06-26T02:32:53;98688.59;;;24.76;37.98
19576;BME280;41589;51.196;7.074;2023-06-26T02:37:54;98695.13;;;24.77;37.85
19576;BME280;41589;51.196;7.074;2023-06-26T02:42:54;98698.59;;;24.68;38.37
19576;BME280;41589;51.196;7.074;2023-06-26T02:47:55;98703.53;;;24.60;38.68
19576;BME280;41589;51.196;7.074;2023-06-26T02:52:56;98703.91;;;24.56;38.72
19576;BME280;41589;51.196;7.074;2023-06-26T02:57:56;98710.03;;;24.53;38.29
19576;BME280;41589;51.196;7.074;2023-06-26T03:02:57;98724.41;;;24.53;38.33
19576;BME280;41589;51.196;7.074;2023-06-26T03:07:57;98717.13;;;24.52;38.39
19576;BME280;41589;51.196;7.074;2023-06-26T03:12:58;98718.66;;;24.53;38.37
19576;BME280;41589;51.196;7.074;2023-06-26T03:17:59;98721.34;;;24.51;38.69
19576;BME280;41589;51.196;7.074;2023-06-26T03:23:18;98722.28;;;24.45;38.75
19576;BME280;41589;51.196;7.074;2023-06-26T03:28:18;98741.06;;;24.39;39.04
19576;BME280;41589;51.196;7.074;2023-06-26T03:33:20;98732.47;;;24.18;39.63
19576;BME280;41589;51.196;7.074;2023-06-26T03:38:22;98751.84;;;24.17;40.00
19576;BME280;41589;51.196;7.074;2023-06-26T03:43:22;98737.22;;;24.08;40.70
19576;BME280;41589;51.196;7.074;2023-06-26T03:48:36;98747.53;;;24.03;41.40
19576;BME280;41589;51.196;7.074;2023-06-26T03:53:44;98752.69;;;23.97;41.90
19576;BME280;41589;51.196;7.074;2023-06-26T03:58:59;98748.03;;;23.94;42.45
19576;BME280;41589;51.196;7.074;2023-06-26T04:04:01;98753.75;;;23.86;43.52
19576;BME280;41589;51.196;7.074;2023-06-26T04:09:15;98764.13;;;23.89;43.99
19576;BME280;41589;51.196;7.074;2023-06-26T04:14:23;98761.59;;;23.86;44.42
19576;BME280;41589;51.196;7.074;2023-06-26T04:19:31;98773.09;;;23.86;45.19
19576;BME280;41589;51.196;7.074;2023-06-26T04:24:39;98770.38;;;23.80;45.51
19576;BME280;41589;51.196;7.074;2023-06-26T04:29:40;98772.41;;;23.72;45.78
19576;BME280;41589;51.196;7.074;2023-06-26T04:34:40;98773.41;;;23.75;46.04
19576;BME280;41589;51.196;7.074;2023-06-26T04:39:43;98776.19;;;23.67;46.32
19576;BME280;41589;51.196;7.074;2023-06-26T04:44:43;98783.47;;;23.68;46.76
19576;BME280;41589;51.196;7.074;2023-06-26T04:49:44;98776.53;;;23.63;47.40
19576;BME280;41589;51.196;7.074;2023-06-26T04:54:45;98792.22;;;23.62;47.67
19576;BME280;41589;51.196;7.074;2023-06-26T04:59:46;98788.38;;;23.60;48.11
19576;BME280;41589;51.196;7.074;2023-06-26T05:04:46;98799.28;;;23.61;47.74
19576;BME280;41589;51.196;7.074;2023-06-26T05:09:47;98790.22;;;23.71;47.49
19576;BME280;41589;51.196;7.074;2023-06-26T05:14:47;98798.06;;;23.70;47.42
19576;BME280;41589;51.196;7.074;2023-06-26T05:19:48;98789.31;;;23.76;47.42
19576;BME280;41589;51.196;7.074;2023-06-26T05:24:49;98793.75;;;23.84;47.05
19576;BME280;41589;51.196;7.074;2023-06-26T05:29:51;98802.34;;;23.77;46.86
19576;BME280;41589;51.196;7.074;2023-06-26T05:34:53;98799.94;;;23.88;47.29
19576;BME280;41589;51.196;7.074;2023-06-26T05:39:54;98792.50;;;23.93;47.49
19576;BME280;41589;51.196;7.074;2023-06-26T05:44:55;98811.84;;;23.93;47.04
19576;BME280;41589;51.196;7.074;2023-06-26T05:49:55;98818.31;;;23.85;47.42
19576;BME280;41589;51.196;7.074;2023-06-26T05:54:56;98815.50;;;23.72;47.93
19576;BME280;41589;51.196;7.074;2023-06-26T06:00:00;98830.19;;;23.69;48.53
19576;BME280;41589;51.196;7.074;2023-06-26T06:05:01;98828.31;;;23.92;48.50
19576;BME280;41589;51.196;7.074;2023-06-26T06:10:03;98828.97;;;23.77;48.31
19576;BME280;41589;51.196;7.074;2023-06-26T06:15:03;98835.81;;;23.53;49.25
19576;BME280;41589;51.196;7.074;2023-06-26T06:20:04;98836.44;;;23.39;49.84
19576;BME280;41589;51.196;7.074;2023-06-26T06:25:06;98853.63;;;23.73;49.38
19576;BME280;41589;51.196;7.074;2023-06-26T06:30:07;98840.03;;;24.23;48.81
19576;BME280;41589;51.196;7.074;2023-06-26T06:35:08;98851.78;;;24.04;48.84
19576;BME280;41589;51.196;7.074;2023-06-26T06:40:14;98846.56;;;24.23;48.97
19576;BME280;41589;51.196;7.074;2023-06-26T06:45:14;98851.78;;;24.32;48.77
19576;BME280;41589;51.196;7.074;2023-06-26T06:50:15;98864.56;;;24.24;49.02
19576;BME280;41589;51.196;7.074;2023-06-26T06:55:16;98874.84;;;23.90;49.12
19576;BME280;41589;51.196;7.074;2023-06-26T07:00:16;98875.72;;;23.78;49.61
19576;BME280;41589;51.196;7.074;2023-06-26T07:05:17;98884.41;;;23.85;49.71
19576;BME280;41589;51.196;7.074;2023-06-26T07:10:17;98890.06;;;23.78;50.01
19576;BME280;41589;51.196;7.074;2023-06-26T07:15:18;98902.19;;;23.84;49.89
19576;BME280;41589;51.196;7.074;2023-06-26T07:20:18;98905.44;;;23.80;50.33
19576;BME280;41589;51.196;7.074;2023-06-26T07:25:19;98917.31;;;23.84;50.37
19576;BME280;41589;51.196;7.074;2023-06-26T07:30:19;98906.56;;;23.98;50.21
19576;BME280;41589;51.196;7.074;2023-06-26T07:35:20;98927.16;;;24.10;49.61
19576;BME280;41589;51.196;7.074;2023-06-26T07:46:46;98904.69;;;24.29;49.98
19576;BME280;41589;51.196;7.074;2023-06-26T07:51:46;98903.44;;;24.38;49.25
19576;BME280;41589;51.196;7.074;2023-06-26T07:57:03;98901.59;;;24.48;49.70
19576;BME280;41589;51.196;7.074;2023-06-26T08:02:04;98914.13;;;24.58;49.21
19576;BME280;41589;51.196;7.074;2023-06-26T08:07:06;98922.28;;;24.75;48.72
19576;BME280;41589;51.196;7.074;2023-06-26T08:12:07;98931.94;;;24.85;48.28
19576;BME280;41589;51.196;7.074;2023-06-26T08:17:07;98931.66;;;24.68;48.32
19576;BME280;41589;51.196;7.074;2023-06-26T08:22:07;98931.28;;;24.71;48.58
19576;BME280;41589;51.196;7.074;2023-06-26T08:27:08;98946.06;;;24.75;48.96
19576;BME280;41589;51.196;7.074;2023-06-26T08:32:08;98955.22;;;24.66;49.17
19576;BME280;41589;51.196;7.074;2023-06-26T08:37:09;98957.13;;;24.64;49.09
19576;BME280;41589;51.196;7.074;2023-06-26T08:42:09;98950.53;;;24.56;49.22
19576;BME280;41589;51.196;7.074;2023-06-26T08:47:15;98966.59;;;24.72;49.95
19576;BME280;41589;51.196;7.074;2023-06-26T08:52:30;98959.00;;;25.18;49.48
19576;BME280;41589;51.196;7.074;2023-06-26T08:57:32;98977.53;;;24.73;49.61
19576;BME280;41589;51.196;7.074;2023-06-26T09:02:32;98972.19;;;25.06;48.63
19576;BME280;41589;51.196;7.074;2023-06-26T09:07:33;98983.94;;;24.87;48.39
19576;BME280;41589;51.196;7.074;2023-06-26T09:12:34;98985.38;;;24.73;48.79
19576;BME280;41589;51.196;7.074;2023-06-26T09:17:39;98994.06;;;25.45;48.51
19576;BME280;41589;51.196;7.074;2023-06-26T09:22:43;98986.16;;;25.38;47.19
19576;BME280;41589;51.196;7.074;2023-06-26T09:27:50;98977.22;;;25.57;46.36
19576;BME280;41589;51.196;7.074;2023-06-26T09:32:50;98976.84;;;25.60;46.13
19576;BME280;41589;51.196;7.074;2023-06-26T09:37:51;98979.09;;;25.98;44.95
19576;BME280;41589;51.196;7.074;2023-06-26T09:43:02;98993.59;;;25.70;45.18
19576;BME280;41589;51.196;7.074;2023-06-26T09:48:03;98989.50;;;26.16;45.16
19576;BME280;41589;51.196;7.074;2023-06-26T09:53:08;98999.34;;;26.67;43.73
19576;BME280;41589;51.196;7.074;2023-06-26T09:58:11;98997.78;;;26.43;42.32
19576;BME280;41589;51.196;7.074;2023-06-26T10:03:14;99005.47;;;26.94;42.29
19576;BME280;41589;51.196;7.074;2023-06-26T10:08:15;98993.88;;;27.17;41.58
19576;BME280;41589;51.196;7.074;2023-06-26T10:13:21;99006.19;;;27.25;40.77
19576;BME280;41589;51.196;7.074;2023-06-26T10:18:24;99013.59;;;27.58;39.76
19576;BME280;41589;51.196;7.074;2023-06-26T10:23:25;99011.09;;;27.63;39.46
19576;BME280;41589;51.196;7.074;2023-06-26T10:28:28;99009.63;;;27.31;39.74
19576;BME280;41589;51.196;7.074;2023-06-26T10:33:29;99014.34;;;26.73;40.01
19576;BME280;41589;51.196;7.074;2023-06-26T10:38:51;99017.63;;;26.46;41.18
19576;BME280;41589;51.196;7.074;2023-06-26T10:48:59;99023.94;;;26.45;40.36
19576;BME280;41589;51.196;7.074;2023-06-26T10:54:00;99035.78;;;25.96;40.10
19576;BME280;41589;51.196;7.074;2023-06-26T10:59:13;99025.81;;;25.17;40.85
19576;BME280;41589;51.196;7.074;2023-06-26T11:04:14;99030.75;;;25.45;41.15
19576;BME280;41589;51.196;7.074;2023-06-26T11:09:23;99020.34;;;25.34;41.40
19576;BME280;41589;51.196;7.074;2023-06-26T11:14:25;99028.13;;;25.54;40.28
19576;BME280;41589;51.196;7.074;2023-06-26T11:19:29;99039.25;;;26.02;39.60
19576;BME280;41589;51.196;7.074;2023-06-26T11:24:30;99044.22;;;25.86;38.12
19576;BME280;41589;51.196;7.074;2023-06-26T11:29:32;99048.63;;;25.51;37.64
19576;BME280;41589;51.196;7.074;2023-06-26T11:34:34;99052.81;;;25.06;39.00
19576;BME280;41589;51.196;7.074;2023-06-26T11:39:35;99052.94;;;25.00;39.48
19576;BME280;41589;51.196;7.074;2023-06-26T11:44:41;99063.41;;;25.11;39.67
19576;BME280;41589;51.196;7.074;2023-06-26T11:49:44;99062.22;;;25.07;38.27
19576;BME280;41589;51.196;7.074;2023-06-26T11:54:45;99067.72;;;25.25;37.21
19576;BME280;41589;51.196;7.074;2023-06-26T11:59:49;99070.00;;;24.98;36.42
19576;BME280;41589;51.196;7.074;2023-06-26T12:04:50;99070.13;;;25.14;36.06
19576;BME280;41589;51.196;7.074;2023-06-26T12:09:50;99080.91;;;25.49;34.40
19576;BME280;41589;51.196;7.074;2023-06-26T12:14:52;99076.78;;;25.66;33.90
19576;BME280;41589;51.196;7.074;2023-06-26T12:19:52;99065.34;;;25.88;33.38
19576;BME280;41589;51.196;7.074;2023-06-26T12:24:56;99080.59;;;26.12;34.04
19576;BME280;41589;51.196;7.074;2023-06-26T12:29:56;99082.72;;;26.11;34.00
19576;BME280;41589;51.196;7.074;2023-06-26T12:34:57;99098.25;;;25.57;34.73
19576;BME280;41589;51.196;7.074;2023-06-26T12:39:58;99111.38;;;25.09;35.78
19576;BME280;41589;51.196;7.074;2023-06-26T12:44:58;99113.16;;;25.19;35.53
19576;BME280;41589;51.196;7.074;2023-06-26T12:50:04;99118.91;;;25.12;35.38
19576;BME280;41589;51.196;7.074;2023-06-26T12:55:05;99129.84;;;24.92;34.98
19576;BME280;41589;51.196;7.074;2023-06-26T13:00:06;99121.41;;;24.73;35.34
19576;BME280;41589;51.196;7.074;2023-06-26T13:05:07;99112.69;;;25.08;34.61
19576;BME280;41589;51.196;7.074;2023-06-26T13:10:08;99123.97;;;25.26;33.39
19576;BME280;41589;51.196;7.074;2023-06-26T13:15:09;99115.25;;;25.11;33.05
19576;BME280;41589;51.196;7.074;2023-06-26T13:20:10;99113.91;;;25.12;34.00
19576;BME280;41589;51.196;7.074;2023-06-26T13:25:11;99127.16;;;24.94;33.52
19576;BME280;41589;51.196;7.074;2023-06-26T13:30:12;99116.50;;;24.82;34.90
19576;BME280;41589;51.196;7.074;2023-06-26T13:35:12;99142.69;;;24.91;34.02
19576;BME280;41589;51.196;7.074;2023-06-26T13:40:14;99140.59;;;24.92;33.85
19576;BME280;41589;51.196;7.074;2023-06-26T13:45:14;99143.38;;;25.26;33.35
19576;BME280;41589;51.196;7.074;2023-06-26T13:50:14;99142.50;;;25.10;32.23
19576;BME280;41589;51.196;7.074;2023-06-26T13:55:15;99137.50;;;24.90;32.18
19576;BME280;41589;51.196;7.074;2023-06-26T14:00:15;99139.59;;;24.89;33.33
19576;BME280;41589;51.196;7.074;2023-06-26T14:05:20;99151.94;;;24.76;33.52
19576;BME280;41589;51.196;7.074;2023-06-26T14:10:22;99148.50;;;24.78;34.19
19576;BME280;41589;51.196;7.074;2023-06-26T14:15:22;99145.16;;;25.08;34.13
19576;BME280;41589;51.196;7.074;2023-06-26T14:20:23;99136.56;;;24.95;33.03
19576;BME280;41589;51.196;7.074;2023-06-26T14:25:23;99147.22;;;25.28;32.33
19576;BME280;41589;51.196;7.074;2023-06-26T14:30:23;99148.22;;;25.31;32.33
19576;BME280;41589;51.196;7.074;2023-06-26T14:35:24;99158.06;;;25.15;31.24
19576;BME280;41589;51.196;7.074;2023-06-26T14:40:24;99153.00;;;24.87;31.61
19576;BME280;41589;51.196;7.074;2023-06-26T14:45:25;99156.13;;;24.89;32.22
19576;BME280;41589;51.196;7.074;2023-06-26T14:50:25;99148.78;;;25.09;32.07
19576;BME280;41589;51.196;7.074;2023-06-26T14:55:26;99158.00;;;24.86;31.83
19576;BME280;41589;51.196;7.074;2023-06-26T15:00:26;99170.53;;;25.10;32.22
19576;BME280;41589;51.196;7.074;2023-06-26T15:05:27;99163.16;;;25.29;30.44
19576;BME280;41589;51.196;7.074;2023-06-26T15:10:27;99170.00;;;25.19;30.78
19576;BME280;41589;51.196;7.074;2023-06-26T15:15:28;99169.53;;;25.07;31.69
19576;BME280;41589;51.196;7.074;2023-06-26T15:20:28;99163.25;;;24.74;31.64
19576;BME280;41589;51.196;7.074;2023-06-26T15:25:28;99166.31;;;24.56;32.58
19576;BME280;41589;51.196;7.074;2023-06-26T15:30:29;99165.03;;;24.43;32.53
19576;BME280;41589;51.196;7.074;2023-06-26T15:35:29;99176.00;;;24.45;32.52
19576;BME280;41589;51.196;7.074;2023-06-26T15:40:30;99186.38;;;24.35;32.68
19576;BME280;41589;51.196;7.074;2023-06-26T15:45:30;99175.59;;;24.28;33.48
19576;BME280;41589;51.196;7.074;2023-06-26T15:50:30;99173.75;;;24.04;33.44
19576;BME280;41589;51.196;7.074;2023-06-26T15:55:31;99172.88;;;24.09;33.50
19576;BME280;41589;51.196;7.074;2023-06-26T16:00:31;99169.28;;;24.29;33.15
19576;BME280;41589;51.196;7.074;2023-06-26T16:05:31;99182.59;;;24.53;33.22
19576;BME280;41589;51.196;7.074;2023-06-26T16:10:32;99171.34;;;24.42;32.42
19576;BME280;41589;51.196;7.074;2023-06-26T16:15:32;99169.81;;;24.41;32.13
19576;BME280;41589;51.196;7.074;2023-06-26T16:20:32;99168.06;;;24.25;32.06
19576;BME280;41589;51.196;7.074;2023-06-26T16:25:33;99161.53;;;24.24;32.10
19576;BME280;41589;51.196;7.074;2023-06-26T16:30:33;99172.63;;;24.20;31.96
19576;BME280;41589;51.196;7.074;2023-06-26T16:35:33;99170.78;;;23.96;31.82
19576;BME280;41589;51.196;7.074;2023-06-26T16:40:36;99175.63;;;23.61;31.71
19576;BME280;41589;51.196;7.074;2023-06-26T16:45:37;99169.31;;;23.63;32.21
19576;BME280;41589;51.196;7.074;2023-06-26T16:50:37;99178.84;;;23.45;31.63
19576;BME280;41589;51.196;7.074;2023-06-26T16:55:38;99182.78;;;23.28;32.32
19576;BME280;41589;51.196;7.074;2023-06-26T17:00:38;99186.31;;;23.21;32.07
19576;BME280;41589;51.196;7.074;2023-06-26T17:05:39;99199.31;;;23.09;33.36
19576;BME280;41589;51.196;7.074;2023-06-26T17:10:40;99196.06;;;22.99;32.97
19576;BME280;41589;51.196;7.074;2023-06-26T17:15:40;99201.78;;;22.99;33.21
19576;BME280;41589;51.196;7.074;2023-06-26T17:20:41;99209.63;;;22.99;33.60
19576;BME280;41589;51.196;7.074;2023-06-26T17:25:41;99211.78;;;22.80;33.79
19576;BME280;41589;51.196;7.074;2023-06-26T17:30:41;99215.97;;;22.79;33.94
19576;BME280;41589;51.196;7.074;2023-06-26T17:35:42;99214.75;;;22.55;33.10
19576;BME280;41589;51.196;7.074;2023-06-26T17:40:42;99218.50;;;22.50;33.28
19576;BME280;41589;51.196;7.074;2023-06-26T17:45:43;99235.38;;;22.35;33.33
19576;BME280;41589;51.196;7.074;2023-06-26T17:50:43;99230.22;;;22.28;33.42
19576;BME280;41589;51.196;7.074;2023-06-26T17:55:43;99226.13;;;22.23;33.90
19576;BME280;41589;51.196;7.074;2023-06-26T18:00:44;99224.03;;;22.24;34.40
19576;BME280;41589;51.196;7.074;2023-06-26T18:05:44;99228.28;;;22.17;35.19
19576;BME280;41589;51.196;7.074;2023-06-26T18:10:45;99239.84;;;22.11;35.39
19576;BME280;41589;51.196;7.074;2023-06-26T18:15:45;99243.03;;;22.08;35.55
19576;BME280;41589;51.196;7.074;2023-06-26T18:20:46;99247.56;;;21.98;36.02
19576;BME280;41589;51.196;7.074;2023-06-26T18:25:46;99246.50;;;22.01;36.18
19576;BME280;41589;51.196;7.074;2023-06-26T18:30:47;99252.06;;;22.12;36.21
19576;BME280;41589;51.196;7.074;2023-06-26T18:35:47;99257.03;;;22.11;36.22
19576;BME280;41589;51.196;7.074;2023-06-26T18:40:48;99257.03;;;22.11;36.75
19576;BME280;41589;51.196;7.074;2023-06-26T18:45:48;99263.19;;;22.21;36.56
19576;BME280;41589;51.196;7.074;2023-06-26T18:50:48;99257.63;;;22.04;36.69
19576;BME280;41589;51.196;7.074;2023-06-26T18:55:49;99257.41;;;22.02;36.82
19576;BME280;41589;51.196;7.074;2023-06-26T19:00:49;99273.41;;;21.92;37.21
19576;BME280;41589;51.196;7.074;2023-06-26T19:05:50;99274.28;;;21.87;37.58
19576;BME280;41589;51.196;7.074;2023-06-26T19:10:53;99280.09;;;21.76;38.18
19576;BME280;41589;51.196;7.074;2023-06-26T19:15:53;99280.47;;;21.67;38.47
19576;BME280;41589;51.196;7.074;2023-06-26T19:20:54;99283.56;;;21.69;38.33
19576;BME280;41589;51.196;7.074;2023-06-26T19:25:54;99284.38;;;21.64;38.79
19576;BME280;41589;51.196;7.074;2023-06-26T19:30:56;99279.25;;;21.56;38.83
19576;BME280;41589;51.196;7.074;2023-06-26T19:35:56;99286.56;;;21.52;38.77
19576;BME280;41589;51.196;7.074;2023-06-26T19:40:57;99292.63;;;21.43;39.12
19576;BME280;41589;51.196;7.074;2023-06-26T19:45:57;99294.25;;;21.38;39.09
19576;BME280;41589;51.196;7.074;2023-06-26T19:50:57;99299.81;;;21.25;39.01
19576;BME280;41589;51.196;7.074;2023-06-26T19:55:58;99299.63;;;21.17;39.25
19576;BME280;41589;51.196;7.074;2023-06-26T20:00:58;99299.41;;;21.10;39.54
19576;BME280;41589;51.196;7.074;2023-06-26T20:05:59;99307.75;;;21.08;39.99
19576;BME280;41589;51.196;7.074;2023-06-26T20:10:59;99304.97;;;20.96;40.56
19576;BME280;41589;51.196;7.074;2023-06-26T20:15:59;99323.47;;;20.90;41.15
19576;BME280;41589;51.196;7.074;2023-06-26T20:21:00;99319.09;;;20.83;41.17
19576;BME280;41589;51.196;7.074;2023-06-26T20:26:01;99326.13;;;20.76;41.39
19576;BME280;41589;51.196;7.074;2023-06-26T20:31:01;99325.69;;;20.61;41.66
19576;BME280;41589;51.196;7.074;2023-06-26T20:36:02;99332.00;;;20.48;41.86
19576;BME280;41589;51.196;7.074;2023-06-26T20:41:02;99334.38;;;20.39;42.33
19576;BME280;41589;51.196;7.074;2023-06-26T20:46:05;99323.53;;;20.21;42.67
19576;BME280;41589;51.196;7.074;2023-06-26T20:51:06;99331.34;;;20.14;42.42
19576;BME280;41589;51.196;7.074;2023-06-26T20:56:06;99343.56;;;20.04;42.59
19576;BME280;41589;51.196;7.074;2023-06-26T21:01:07;99337.59;;;20.02;43.28
19576;BME280;41589;51.196;7.074;2023-06-26T21:06:07;99340.44;;;19.96;42.58
19576;BME280;41589;51.196;7.074;2023-06-26T21:11:08;99348.78;;;19.88;42.85
19576;BME280;41589;51.196;7.074;2023-06-26T21:16:08;99351.41;;;19.81;42.62
19576;BME280;41589;51.196;7.074;2023-06-26T21:21:09;99350.63;;;19.75;42.37
19576;BME280;41589;51.196;7.074;2023-06-26T21:26:09;99360.22;;;19.66;42.25
19576;BME280;41589;51.196;7.074;2023-06-26T21:31:10;99352.44;;;19.55;41.83
19576;BME280;41589;51.196;7.074;2023-06-26T21:36:10;99362.31;;;19.60;42.00
19576;BME280;41589;51.196;7.074;2023-06-26T21:41:11;99364.13;;;19.52;41.58
19576;BME280;41589;51.196;7.074;2023-06-26T21:46:11;99359.22;;;19.47;41.34
19576;BME280;41589;51.196;7.074;2023-06-26T21:51:11;99363.09;;;19.44;41.40
19576;BME280;41589;51.196;7.074;2023-06-26T21:56:12;99364.66;;;19.39;41.66
19576;BME280;41589;51.196;7.074;2023-06-26T22:01:12;99368.78;;;19.44;41.46
19576;BME280;41589;51.196;7.074;2023-06-26T22:06:13;99374.78;;;19.40;41.73
19576;BME280;41589;51.196;7.074;2023-06-26T22:11:13;99382.31;;;19.38;41.66
19576;BME280;41589;51.196;7.074;2023-06-26T22:16:14;99376.56;;;19.32;41.87
19576;BME280;41589;51.196;7.074;2023-06-26T22:21:14;99371.13;;;19.34;41.75
19576;BME280;41589;51.196;7.074;2023-06-26T22:26:15;99389.28;;;19.42;42.01
19576;BME280;41589;51.196;7.074;2023-06-26T22:31:15;99369.59;;;19.39;41.65
19576;BME280;41589;51.196;7.074;2023-06-26T22:36:15;99377.09;;;19.36;42.46
19576;BME280;41589;51.196;7.074;2023-06-26T22:41:16;99364.66;;;19.28;42.09
19576;BME280;41589;51.196;7.074;2023-06-26T22:46:16;99372.38;;;19.22;42.59
19576;BME280;41589;51.196;7.074;2023-06-26T22:51:16;99376.78;;;19.23;42.66
19576;BME280;41589;51.196;7.074;2023-06-26T22:56:17;99371.34;;;19.19;42.64
19576;BME280;41589;51.196;7.074;2023-06-26T23:01:17;99364.09;;;19.18;43.04
19576;BME280;41589;51.196;7.074;2023-06-26T23:06:17;99358.91;;;19.17;43.18
19576;BME280;41589;51.196;7.074;2023-06-26T23:11:21;99369.00;;;19.12;43.20
19576;BME280;41589;51.196;7.074;2023-06-26T23:16:22;99375.47;;;19.13;43.54
19576;BME280;41589;51.196;7.074;2023-06-26T23:21:22;99369.53;;;19.05;43.66
19576;BME280;41589;51.196;7.074;2023-06-26T23:26:23;99379.09;;;19.02;43.82
19576;BME280;41589;51.196;7.074;2023-06-26T23:31:23;99372.31;;;18.94;44.02
19576;BME280;41589;51.196;7.074;2023-06-26T23:36:25;99372.06;;;18.86;44.14
19576;BME280;41589;51.196;7.074;2023-06-26T23:41:28;99380.84;;;18.83;44.29
19576;BME280;41589;51.196;7.074;2023-06-26T23:46:29;99386.28;;;18.81;44.45
19576;BME280;41589;51.196;7.074;2023-06-26T23:51:32;99381.06;;;18.73;44.16
19576;BME280;41589;51.196;7.074;2023-06-26T23:56:33;99382.09;;;18.70;44.13
